sensor_id;sensor_type;location;lat;lon;timestamp;temperature;humidity
22337;DHT22;14992;50.844;4.418;2022-09-27T00:02:17;12.40;99.90
22337;DHT22;14992;50.844;4.418;2022-09-27T00:04:46;12.30;99.90
22337;DHT22;14992;50.844;4.418;2022-09-27T00:07:15;12.20;99.90
22337;DHT22;14992;50.844;4.418;2022-09-27T00:09:43;12.10;99.90
22337;DHT22;14992;50.844;4.418;2022-09-27T00:12:11;12.10;99.90
22337;DHT22;14992;50.844;4.418;2022-09-27T00:14:39;12.00;99.90
22337;DHT22;14992;50.844;4.418;2022-09-27T00:17:08;11.80;99.90
22337;DHT22;14992;50.844;4.418;2022-09-27T00:19:36;11.90;99.90
22337;DHT22;14992;50.844;4.418;2022-09-27T00:22:05;12.00;99.90
22337;DHT22;14992;50.844;4.418;2022-09-27T00:24:33;12.00;99.90
22337;DHT22;14992;50.844;4.418;2022-09-27T00:27:01;12.00;99.90
22337;DHT22;14992;50.844;4.418;2022-09-27T00:29:30;11.90;99.90
22337;DHT22;14992;50.844;4.418;2022-09-27T00:31:58;12.00;99.90
22337;DHT22;14992;50.844;4.418;2022-09-27T00:34:26;12.00;99.90
22337;DHT22;14992;50.844;4.418;2022-09-27T00:36:54;11.90;99.90
22337;DHT22;14992;50.844;4.418;2022-09-27T00:39:24;11.90;99.90
22337;DHT22;14992;50.844;4.418;2022-09-27T00:41:52;12.00;99.90
22337;DHT22;14992;50.844;4.418;2022-09-27T00:47:08;11.80;99.90
22337;DHT22;14992;50.844;4.418;2022-09-27T00:49:39;11.70;99.90
22337;DHT22;14992;50.844;4.418;2022-09-27T00:52:11;11.90;99.90
22337;DHT22;14992;50.844;4.418;2022-09-27T00:54:43;11.90;99.90
22337;DHT22;14992;50.844;4.418;2022-09-27T00:57:13;11.90;99.90
22337;DHT22;14992;50.844;4.418;2022-09-27T00:59:42;11.90;99.90
22337;DHT22;14992;50.844;4.418;2022-09-27T01:02:12;11.80;99.90
22337;DHT22;14992;50.844;4.418;2022-09-27T01:04:40;11.90;99.90
22337;DHT22;14992;50.844;4.418;2022-09-27T01:07:09;11.90;99.90
22337;DHT22;14992;50.844;4.418;2022-09-27T01:09:38;11.80;99.90
22337;DHT22;14992;50.844;4.418;2022-09-27T01:12:08;11.90;99.90
22337;DHT22;14992;50.844;4.418;2022-09-27T01:14:46;11.80;99.90
22337;DHT22;14992;50.844;4.418;2022-09-27T01:17:21;11.90;99.90
22337;DHT22;14992;50.844;4.418;2022-09-27T01:20:02;11.90;99.90
22337;DHT22;14992;50.844;4.418;2022-09-27T01:22:34;11.80;99.90
22337;DHT22;14992;50.844;4.418;2022-09-27T01:25:10;11.70;99.90
22337;DHT22;14992;50.844;4.418;2022-09-27T01:27:59;11.70;99.90
22337;DHT22;14992;50.844;4.418;2022-09-27T01:30:32;11.70;99.90
22337;DHT22;14992;50.844;4.418;2022-09-27T01:33:07;11.80;99.90
22337;DHT22;14992;50.844;4.418;2022-09-27T01:35:39;11.90;99.90
22337;DHT22;14992;50.844;4.418;2022-09-27T01:38:17;11.70;99.90
22337;DHT22;14992;50.844;4.418;2022-09-27T01:40:48;11.50;99.90
22337;DHT22;14992;50.844;4.418;2022-09-27T01:43:45;11.70;99.90
22337;DHT22;14992;50.844;4.418;2022-09-27T01:46:22;11.80;99.90
22337;DHT22;14992;50.844;4.418;2022-09-27T01:49:10;11.80;99.90
22337;DHT22;14992;50.844;4.418;2022-09-27T01:51:41;11.90;99.90
22337;DHT22;14992;50.844;4.418;2022-09-27T01:54:12;11.80;99.90
22337;DHT22;14992;50.844;4.418;2022-09-27T01:57:08;11.80;99.90
22337;DHT22;14992;50.844;4.418;2022-09-27T01:59:39;11.70;99.90
22337;DHT22;14992;50.844;4.418;2022-09-27T02:02:33;11.70;99.90
22337;DHT22;14992;50.844;4.418;2022-09-27T02:05:22;11.70;99.90
22337;DHT22;14992;50.844;4.418;2022-09-27T02:07:57;11.90;99.90
22337;DHT22;14992;50.844;4.418;2022-09-27T02:10:27;12.00;99.90
22337;DHT22;14992;50.844;4.418;2022-09-27T02:13:00;12.10;99.90
22337;DHT22;14992;50.844;4.418;2022-09-27T02:15:29;12.10;99.90
22337;DHT22;14992;50.844;4.418;2022-09-27T02:18:22;12.00;99.90
22337;DHT22;14992;50.844;4.418;2022-09-27T02:20:55;12.10;99.90
22337;DHT22;14992;50.844;4.418;2022-09-27T02:23:28;12.00;99.90
22337;DHT22;14992;50.844;4.418;2022-09-27T02:26:08;12.00;99.90
22337;DHT22;14992;50.844;4.418;2022-09-27T02:28:39;11.90;99.90
22337;DHT22;14992;50.844;4.418;2022-09-27T02:31:15;11.90;99.90
22337;DHT22;14992;50.844;4.418;2022-09-27T02:33:46;11.90;99.90
22337;DHT22;14992;50.844;4.418;2022-09-27T02:36:15;11.70;99.90
22337;DHT22;14992;50.844;4.418;2022-09-27T02:38:43;11.70;99.90
22337;DHT22;14992;50.844;4.418;2022-09-27T02:41:14;11.70;99.90
22337;DHT22;14992;50.844;4.418;2022-09-27T02:43:43;11.70;99.90
22337;DHT22;14992;50.844;4.418;2022-09-27T02:46:19;11.70;99.90
22337;DHT22;14992;50.844;4.418;2022-09-27T02:48:55;11.70;99.90
22337;DHT22;14992;50.844;4.418;2022-09-27T02:51:33;11.60;99.90
22337;DHT22;14992;50.844;4.418;2022-09-27T02:54:07;11.80;99.90
22337;DHT22;14992;50.844;4.418;2022-09-27T02:57:00;11.80;99.90
22337;DHT22;14992;50.844;4.418;2022-09-27T02:59:58;11.70;99.90
22337;DHT22;14992;50.844;4.418;2022-09-27T03:02:44;11.80;99.90
22337;DHT22;14992;50.844;4.418;2022-09-27T03:05:34;11.70;99.90
22337;DHT22;14992;50.844;4.418;2022-09-27T03:08:05;11.80;99.90
22337;DHT22;14992;50.844;4.418;2022-09-27T03:10:34;11.70;99.90
22337;DHT22;14992;50.844;4.418;2022-09-27T03:13:02;11.70;99.90
22337;DHT22;14992;50.844;4.418;2022-09-27T03:15:30;11.80;99.90
22337;DHT22;14992;50.844;4.418;2022-09-27T03:17:59;11.50;99.90
22337;DHT22;14992;50.844;4.418;2022-09-27T03:20:57;11.70;99.90
22337;DHT22;14992;50.844;4.418;2022-09-27T03:23:26;11.50;99.90
22337;DHT22;14992;50.844;4.418;2022-09-27T03:25:55;11.70;99.90
22337;DHT22;14992;50.844;4.418;2022-09-27T03:28:23;11.50;99.90
22337;DHT22;14992;50.844;4.418;2022-09-27T03:30:52;11.50;99.90
22337;DHT22;14992;50.844;4.418;2022-09-27T03:33:52;11.80;99.90
22337;DHT22;14992;50.844;4.418;2022-09-27T03:36:22;11.90;99.90
22337;DHT22;14992;50.844;4.418;2022-09-27T03:38:50;11.80;99.90
22337;DHT22;14992;50.844;4.418;2022-09-27T03:41:19;11.80;99.90
22337;DHT22;14992;50.844;4.418;2022-09-27T03:43:47;11.70;99.90
22337;DHT22;14992;50.844;4.418;2022-09-27T03:46:15;11.60;99.90
22337;DHT22;14992;50.844;4.418;2022-09-27T03:48:44;11.60;99.90
22337;DHT22;14992;50.844;4.418;2022-09-27T03:51:12;11.70;99.90
22337;DHT22;14992;50.844;4.418;2022-09-27T03:53:42;11.70;99.90
22337;DHT22;14992;50.844;4.418;2022-09-27T03:56:10;11.50;99.90
22337;DHT22;14992;50.844;4.418;2022-09-27T03:58:38;11.30;99.90
22337;DHT22;14992;50.844;4.418;2022-09-27T04:01:06;11.40;99.90
22337;DHT22;14992;50.844;4.418;2022-09-27T04:03:36;11.50;99.90
22337;DHT22;14992;50.844;4.418;2022-09-27T04:06:23;11.30;99.90
22337;DHT22;14992;50.844;4.418;2022-09-27T04:08:54;11.30;99.90
22337;DHT22;14992;50.844;4.418;2022-09-27T04:11:30;11.50;99.90
22337;DHT22;14992;50.844;4.418;2022-09-27T04:13:58;11.30;99.90
22337;DHT22;14992;50.844;4.418;2022-09-27T04:16:30;11.40;99.90
22337;DHT22;14992;50.844;4.418;2022-09-27T04:19:19;11.30;99.90
22337;DHT22;14992;50.844;4.418;2022-09-27T04:22:01;11.10;99.90
22337;DHT22;14992;50.844;4.418;2022-09-27T04:24:31;11.10;99.90
22337;DHT22;14992;50.844;4.418;2022-09-27T04:27:24;11.20;99.90
22337;DHT22;14992;50.844;4.418;2022-09-27T04:29:52;11.20;99.90
22337;DHT22;14992;50.844;4.418;2022-09-27T04:32:48;11.30;99.90
22337;DHT22;14992;50.844;4.418;2022-09-27T04:35:43;11.30;99.90
22337;DHT22;14992;50.844;4.418;2022-09-27T04:38:29;11.40;99.90
22337;DHT22;14992;50.844;4.418;2022-09-27T04:40:58;11.60;99.90
22337;DHT22;14992;50.844;4.418;2022-09-27T04:43:32;11.70;99.90
22337;DHT22;14992;50.844;4.418;2022-09-27T04:46:02;11.70;99.90
22337;DHT22;14992;50.844;4.418;2022-09-27T04:48:30;11.60;99.90
22337;DHT22;14992;50.844;4.418;2022-09-27T04:50:58;11.60;99.90
22337;DHT22;14992;50.844;4.418;2022-09-27T04:53:28;11.50;99.90
22337;DHT22;14992;50.844;4.418;2022-09-27T04:55:59;11.50;99.90
22337;DHT22;14992;50.844;4.418;2022-09-27T04:58:33;11.30;99.90
22337;DHT22;14992;50.844;4.418;2022-09-27T05:01:01;11.10;99.90
22337;DHT22;14992;50.844;4.418;2022-09-27T05:03:54;11.20;99.90
22337;DHT22;14992;50.844;4.418;2022-09-27T05:06:24;11.20;99.90
22337;DHT22;14992;50.844;4.418;2022-09-27T05:08:55;11.30;99.90
22337;DHT22;14992;50.844;4.418;2022-09-27T05:11:27;11.50;99.90
22337;DHT22;14992;50.844;4.418;2022-09-27T05:14:14;11.50;99.90
22337;DHT22;14992;50.844;4.418;2022-09-27T05:17:03;11.50;99.90
22337;DHT22;14992;50.844;4.418;2022-09-27T05:19:42;11.30;99.90
22337;DHT22;14992;50.844;4.418;2022-09-27T05:22:25;11.20;99.90
22337;DHT22;14992;50.844;4.418;2022-09-27T05:24:53;11.20;99.90
22337;DHT22;14992;50.844;4.418;2022-09-27T05:27:24;11.40;99.90
22337;DHT22;14992;50.844;4.418;2022-09-27T05:29:52;11.20;99.90
22337;DHT22;14992;50.844;4.418;2022-09-27T05:32:30;11.10;99.90
22337;DHT22;14992;50.844;4.418;2022-09-27T05:35:30;11.20;99.90
22337;DHT22;14992;50.844;4.418;2022-09-27T05:37:59;11.20;99.90
22337;DHT22;14992;50.844;4.418;2022-09-27T05:40:30;11.10;99.90
22337;DHT22;14992;50.844;4.418;2022-09-27T05:43:10;11.20;99.90
22337;DHT22;14992;50.844;4.418;2022-09-27T05:45:39;11.30;99.90
22337;DHT22;14992;50.844;4.418;2022-09-27T05:48:07;11.00;99.90
22337;DHT22;14992;50.844;4.418;2022-09-27T05:50:42;10.90;99.90
22337;DHT22;14992;50.844;4.418;2022-09-27T05:53:10;11.00;99.90
22337;DHT22;14992;50.844;4.418;2022-09-27T05:55:40;11.10;99.90
22337;DHT22;14992;50.844;4.418;2022-09-27T05:58:11;11.20;99.90
22337;DHT22;14992;50.844;4.418;2022-09-27T06:00:45;11.40;99.90
22337;DHT22;14992;50.844;4.418;2022-09-27T06:03:39;11.40;99.90
22337;DHT22;14992;50.844;4.418;2022-09-27T06:06:26;11.20;99.90
22337;DHT22;14992;50.844;4.418;2022-09-27T06:08:56;11.30;99.90
22337;DHT22;14992;50.844;4.418;2022-09-27T06:11:27;11.10;99.90
22337;DHT22;14992;50.844;4.418;2022-09-27T06:13:57;11.20;99.90
22337;DHT22;14992;50.844;4.418;2022-09-27T06:16:26;11.30;99.90
22337;DHT22;14992;50.844;4.418;2022-09-27T06:18:54;11.10;99.90
22337;DHT22;14992;50.844;4.418;2022-09-27T06:21:23;11.10;99.90
22337;DHT22;14992;50.844;4.418;2022-09-27T06:23:54;11.10;99.90
22337;DHT22;14992;50.844;4.418;2022-09-27T06:26:28;11.10;99.90
22337;DHT22;14992;50.844;4.418;2022-09-27T06:29:18;11.30;99.90
22337;DHT22;14992;50.844;4.418;2022-09-27T06:31:54;11.20;99.90
22337;DHT22;14992;50.844;4.418;2022-09-27T06:34:32;11.20;99.90
22337;DHT22;14992;50.844;4.418;2022-09-27T06:37:01;11.20;99.90
22337;DHT22;14992;50.844;4.418;2022-09-27T06:39:29;11.10;99.90
22337;DHT22;14992;50.844;4.418;2022-09-27T06:42:19;11.20;99.90
22337;DHT22;14992;50.844;4.418;2022-09-27T06:45:05;11.30;99.90
22337;DHT22;14992;50.844;4.418;2022-09-27T06:47:53;11.30;99.90
22337;DHT22;14992;50.844;4.418;2022-09-27T06:50:29;11.60;99.90
22337;DHT22;14992;50.844;4.418;2022-09-27T06:52:58;11.50;99.90
22337;DHT22;14992;50.844;4.418;2022-09-27T06:55:27;11.60;99.90
22337;DHT22;14992;50.844;4.418;2022-09-27T06:57:55;11.50;99.90
22337;DHT22;14992;50.844;4.418;2022-09-27T07:00:52;11.50;99.90
22337;DHT22;14992;50.844;4.418;2022-09-27T07:03:40;11.70;99.90
22337;DHT22;14992;50.844;4.418;2022-09-27T07:06:26;11.90;99.90
22337;DHT22;14992;50.844;4.418;2022-09-27T07:09:00;11.90;99.90
22337;DHT22;14992;50.844;4.418;2022-09-27T07:11:29;12.00;99.90
22337;DHT22;14992;50.844;4.418;2022-09-27T07:13:58;11.90;99.90
22337;DHT22;14992;50.844;4.418;2022-09-27T07:16:30;12.00;99.90
22337;DHT22;14992;50.844;4.418;2022-09-27T07:19:02;12.00;99.90
22337;DHT22;14992;50.844;4.418;2022-09-27T07:21:33;12.00;99.90
22337;DHT22;14992;50.844;4.418;2022-09-27T07:24:01;12.00;99.90
22337;DHT22;14992;50.844;4.418;2022-09-27T07:26:30;12.00;99.90
22337;DHT22;14992;50.844;4.418;2022-09-27T07:28:58;12.00;99.90
22337;DHT22;14992;50.844;4.418;2022-09-27T07:31:29;12.00;99.90
22337;DHT22;14992;50.844;4.418;2022-09-27T07:33:58;11.90;99.90
22337;DHT22;14992;50.844;4.418;2022-09-27T07:36:26;12.10;99.90
22337;DHT22;14992;50.844;4.418;2022-09-27T07:38:57;12.10;99.90
22337;DHT22;14992;50.844;4.418;2022-09-27T07:41:26;12.10;99.90
22337;DHT22;14992;50.844;4.418;2022-09-27T07:43:54;12.20;99.90
22337;DHT22;14992;50.844;4.418;2022-09-27T07:46:23;12.10;99.90
22337;DHT22;14992;50.844;4.418;2022-09-27T07:48:55;12.30;99.90
22337;DHT22;14992;50.844;4.418;2022-09-27T07:51:42;12.30;99.90
22337;DHT22;14992;50.844;4.418;2022-09-27T07:54:25;12.40;99.90
22337;DHT22;14992;50.844;4.418;2022-09-27T07:57:12;12.20;99.90
22337;DHT22;14992;50.844;4.418;2022-09-27T07:59:47;12.20;99.90
22337;DHT22;14992;50.844;4.418;2022-09-27T08:02:18;12.10;99.90
22337;DHT22;14992;50.844;4.418;2022-09-27T08:04:50;12.10;99.90
22337;DHT22;14992;50.844;4.418;2022-09-27T08:07:19;11.90;99.90
22337;DHT22;14992;50.844;4.418;2022-09-27T08:09:51;12.00;99.90
22337;DHT22;14992;50.844;4.418;2022-09-27T08:12:21;12.10;99.90
22337;DHT22;14992;50.844;4.418;2022-09-27T08:14:49;12.20;99.90
22337;DHT22;14992;50.844;4.418;2022-09-27T08:17:18;12.40;99.90
22337;DHT22;14992;50.844;4.418;2022-09-27T08:20:06;12.30;99.90
22337;DHT22;14992;50.844;4.418;2022-09-27T08:22:38;12.30;99.90
22337;DHT22;14992;50.844;4.418;2022-09-27T08:25:19;12.40;99.90
22337;DHT22;14992;50.844;4.418;2022-09-27T08:28:07;12.40;99.90
22337;DHT22;14992;50.844;4.418;2022-09-27T08:30:48;12.20;99.90
22337;DHT22;14992;50.844;4.418;2022-09-27T08:33:18;12.40;99.90
22337;DHT22;14992;50.844;4.418;2022-09-27T08:35:47;12.40;99.90
22337;DHT22;14992;50.844;4.418;2022-09-27T08:38:15;12.50;99.90
22337;DHT22;14992;50.844;4.418;2022-09-27T08:40:49;12.60;99.90
22337;DHT22;14992;50.844;4.418;2022-09-27T08:43:23;12.60;99.90
22337;DHT22;14992;50.844;4.418;2022-09-27T08:48:36;12.50;99.90
22337;DHT22;14992;50.844;4.418;2022-09-27T08:51:08;12.40;99.90
22337;DHT22;14992;50.844;4.418;2022-09-27T08:53:38;12.50;99.90
22337;DHT22;14992;50.844;4.418;2022-09-27T08:56:08;12.40;99.90
22337;DHT22;14992;50.844;4.418;2022-09-27T08:58:42;12.20;99.90
22337;DHT22;14992;50.844;4.418;2022-09-27T09:01:19;12.30;99.90
22337;DHT22;14992;50.844;4.418;2022-09-27T09:04:01;12.30;99.90
22337;DHT22;14992;50.844;4.418;2022-09-27T09:06:35;12.30;99.90
22337;DHT22;14992;50.844;4.418;2022-09-27T09:09:09;12.20;99.90
22337;DHT22;14992;50.844;4.418;2022-09-27T09:11:52;12.00;99.90
22337;DHT22;14992;50.844;4.418;2022-09-27T09:14:45;12.10;99.90
22337;DHT22;14992;50.844;4.418;2022-09-27T09:17:19;12.20;99.90
22337;DHT22;14992;50.844;4.418;2022-09-27T09:20:21;12.20;99.90
22337;DHT22;14992;50.844;4.418;2022-09-27T09:23:00;12.10;99.90
22337;DHT22;14992;50.844;4.418;2022-09-27T09:25:34;12.10;99.90
22337;DHT22;14992;50.844;4.418;2022-09-27T09:28:10;11.90;99.90
22337;DHT22;14992;50.844;4.418;2022-09-27T09:30:45;12.00;99.90
22337;DHT22;14992;50.844;4.418;2022-09-27T09:33:20;12.00;99.90
22337;DHT22;14992;50.844;4.418;2022-09-27T09:35:51;11.90;99.90
22337;DHT22;14992;50.844;4.418;2022-09-27T09:38:28;12.00;99.90
22337;DHT22;14992;50.844;4.418;2022-09-27T09:41:02;11.90;99.90
22337;DHT22;14992;50.844;4.418;2022-09-27T09:43:32;12.00;99.90
22337;DHT22;14992;50.844;4.418;2022-09-27T09:46:06;12.20;99.90
22337;DHT22;14992;50.844;4.418;2022-09-27T09:48:37;12.40;99.90
22337;DHT22;14992;50.844;4.418;2022-09-27T09:51:07;12.60;99.90
22337;DHT22;14992;50.844;4.418;2022-09-27T09:53:40;12.60;99.90
22337;DHT22;14992;50.844;4.418;2022-09-27T09:56:12;12.70;99.90
22337;DHT22;14992;50.844;4.418;2022-09-27T09:58:43;12.70;99.90
22337;DHT22;14992;50.844;4.418;2022-09-27T10:01:16;12.60;99.90
22337;DHT22;14992;50.844;4.418;2022-09-27T10:03:45;12.70;99.90
22337;DHT22;14992;50.844;4.418;2022-09-27T10:06:14;12.90;99.90
22337;DHT22;14992;50.844;4.418;2022-09-27T10:08:44;12.70;99.90
22337;DHT22;14992;50.844;4.418;2022-09-27T10:11:34;12.70;99.90
22337;DHT22;14992;50.844;4.418;2022-09-27T10:14:20;12.80;99.90
22337;DHT22;14992;50.844;4.418;2022-09-27T10:16:52;12.90;99.90
22337;DHT22;14992;50.844;4.418;2022-09-27T10:19:22;13.10;99.90
22337;DHT22;14992;50.844;4.418;2022-09-27T10:21:53;13.10;99.90
22337;DHT22;14992;50.844;4.418;2022-09-27T10:24:27;13.20;99.90
22337;DHT22;14992;50.844;4.418;2022-09-27T10:26:58;13.30;99.90
22337;DHT22;14992;50.844;4.418;2022-09-27T10:29:30;13.40;99.90
22337;DHT22;14992;50.844;4.418;2022-09-27T10:32:04;13.50;99.90
22337;DHT22;14992;50.844;4.418;2022-09-27T10:34:46;13.60;99.90
22337;DHT22;14992;50.844;4.418;2022-09-27T10:37:16;13.70;99.90
22337;DHT22;14992;50.844;4.418;2022-09-27T10:40:18;13.80;99.90
22337;DHT22;14992;50.844;4.418;2022-09-27T10:42:53;13.90;99.90
22337;DHT22;14992;50.844;4.418;2022-09-27T10:45:26;13.90;99.90
22337;DHT22;14992;50.844;4.418;2022-09-27T10:48:08;14.00;99.90
22337;DHT22;14992;50.844;4.418;2022-09-27T10:50:53;14.20;99.90
22337;DHT22;14992;50.844;4.418;2022-09-27T10:53:37;14.20;99.90
22337;DHT22;14992;50.844;4.418;2022-09-27T10:56:22;14.30;99.90
22337;DHT22;14992;50.844;4.418;2022-09-27T10:58:52;14.00;99.90
22337;DHT22;14992;50.844;4.418;2022-09-27T11:01:22;14.00;99.90
22337;DHT22;14992;50.844;4.418;2022-09-27T11:04:16;13.90;99.90
22337;DHT22;14992;50.844;4.418;2022-09-27T11:06:46;13.90;99.90
22337;DHT22;14992;50.844;4.418;2022-09-27T11:09:17;13.90;99.90
22337;DHT22;14992;50.844;4.418;2022-09-27T11:11:54;14.00;99.90
22337;DHT22;14992;50.844;4.418;2022-09-27T11:14:32;14.10;99.90
22337;DHT22;14992;50.844;4.418;2022-09-27T11:17:12;14.20;99.90
22337;DHT22;14992;50.844;4.418;2022-09-27T11:19:51;14.20;99.90
22337;DHT22;14992;50.844;4.418;2022-09-27T11:22:25;14.30;99.90
22337;DHT22;14992;50.844;4.418;2022-09-27T11:24:59;14.20;99.90
22337;DHT22;14992;50.844;4.418;2022-09-27T11:27:34;14.10;99.90
22337;DHT22;14992;50.844;4.418;2022-09-27T11:30:07;14.00;99.90
22337;DHT22;14992;50.844;4.418;2022-09-27T11:33:01;13.80;99.90
22337;DHT22;14992;50.844;4.418;2022-09-27T11:35:45;13.70;99.90
22337;DHT22;14992;50.844;4.418;2022-09-27T11:38:18;13.60;99.90
22337;DHT22;14992;50.844;4.418;2022-09-27T11:41:15;13.70;99.90
22337;DHT22;14992;50.844;4.418;2022-09-27T11:46:33;14.20;99.90
22337;DHT22;14992;50.844;4.418;2022-09-27T11:49:14;14.40;99.90
22337;DHT22;14992;50.844;4.418;2022-09-27T11:51:51;14.20;99.90
22337;DHT22;14992;50.844;4.418;2022-09-27T11:54:24;14.30;99.90
22337;DHT22;14992;50.844;4.418;2022-09-27T11:56:58;14.40;99.90
22337;DHT22;14992;50.844;4.418;2022-09-27T11:59:33;14.50;99.90
22337;DHT22;14992;50.844;4.418;2022-09-27T12:02:11;14.40;99.90
22337;DHT22;14992;50.844;4.418;2022-09-27T12:04:56;14.30;99.90
22337;DHT22;14992;50.844;4.418;2022-09-27T12:07:31;14.00;99.90
22337;DHT22;14992;50.844;4.418;2022-09-27T12:10:04;14.00;99.90
22337;DHT22;14992;50.844;4.418;2022-09-27T12:12:37;14.00;99.90
22337;DHT22;14992;50.844;4.418;2022-09-27T12:15:11;14.10;99.90
22337;DHT22;14992;50.844;4.418;2022-09-27T12:17:43;14.20;99.90
22337;DHT22;14992;50.844;4.418;2022-09-27T12:20:13;14.30;99.90
22337;DHT22;14992;50.844;4.418;2022-09-27T12:22:49;14.20;99.90
22337;DHT22;14992;50.844;4.418;2022-09-27T12:25:57;14.40;99.90
22337;DHT22;14992;50.844;4.418;2022-09-27T12:28:31;14.70;99.90
22337;DHT22;14992;50.844;4.418;2022-09-27T12:31:03;14.70;99.90
22337;DHT22;14992;50.844;4.418;2022-09-27T12:33:58;14.90;99.90
22337;DHT22;14992;50.844;4.418;2022-09-27T12:36:30;15.00;99.90
22337;DHT22;14992;50.844;4.418;2022-09-27T12:39:05;15.00;99.90
22337;DHT22;14992;50.844;4.418;2022-09-27T12:41:42;14.90;99.90
22337;DHT22;14992;50.844;4.418;2022-09-27T12:44:23;14.90;99.90
22337;DHT22;14992;50.844;4.418;2022-09-27T12:46:55;14.90;99.90
22337;DHT22;14992;50.844;4.418;2022-09-27T12:49:31;14.90;99.90
22337;DHT22;14992;50.844;4.418;2022-09-27T12:52:02;14.90;99.90
22337;DHT22;14992;50.844;4.418;2022-09-27T12:54:38;14.80;99.90
22337;DHT22;14992;50.844;4.418;2022-09-27T12:57:13;15.00;99.90
22337;DHT22;14992;50.844;4.418;2022-09-27T12:59:50;15.10;99.90
22337;DHT22;14992;50.844;4.418;2022-09-27T13:05:39;14.80;99.90
22337;DHT22;14992;50.844;4.418;2022-09-27T13:08:18;14.40;99.90
22337;DHT22;14992;50.844;4.418;2022-09-27T13:10:51;14.30;99.90
22337;DHT22;14992;50.844;4.418;2022-09-27T13:13:29;14.30;99.90
22337;DHT22;14992;50.844;4.418;2022-09-27T13:16:04;14.10;99.90
22337;DHT22;14992;50.844;4.418;2022-09-27T13:18:54;14.00;99.90
22337;DHT22;14992;50.844;4.418;2022-09-27T13:24:42;14.10;99.90
22337;DHT22;14992;50.844;4.418;2022-09-27T13:27:38;14.10;99.90
22337;DHT22;14992;50.844;4.418;2022-09-27T13:36:04;14.50;99.90
22337;DHT22;14992;50.844;4.418;2022-09-27T13:38:34;14.80;99.90
22337;DHT22;14992;50.844;4.418;2022-09-27T13:41:13;14.90;99.90
22337;DHT22;14992;50.844;4.418;2022-09-27T13:43:55;14.90;99.90
22337;DHT22;14992;50.844;4.418;2022-09-27T13:46:33;14.90;99.90
22337;DHT22;14992;50.844;4.418;2022-09-27T13:49:04;15.00;99.90
22337;DHT22;14992;50.844;4.418;2022-09-27T13:51:56;15.00;99.90
22337;DHT22;14992;50.844;4.418;2022-09-27T13:54:37;15.20;99.90
22337;DHT22;14992;50.844;4.418;2022-09-27T14:00:01;15.30;99.90
22337;DHT22;14992;50.844;4.418;2022-09-27T14:02:49;15.30;99.90
22337;DHT22;14992;50.844;4.418;2022-09-27T14:05:19;15.30;99.90
22337;DHT22;14992;50.844;4.418;2022-09-27T14:07:49;15.40;99.90
22337;DHT22;14992;50.844;4.418;2022-09-27T14:10:19;15.60;99.90
22337;DHT22;14992;50.844;4.418;2022-09-27T14:12:49;15.70;99.90
22337;DHT22;14992;50.844;4.418;2022-09-27T14:15:22;15.90;99.90
22337;DHT22;14992;50.844;4.418;2022-09-27T14:17:51;15.60;99.90
22337;DHT22;14992;50.844;4.418;2022-09-27T14:20:34;15.60;99.90
22337;DHT22;14992;50.844;4.418;2022-09-27T14:23:04;15.80;99.90
22337;DHT22;14992;50.844;4.418;2022-09-27T14:25:37;15.90;99.90
22337;DHT22;14992;50.844;4.418;2022-09-27T14:28:17;16.00;99.90
22337;DHT22;14992;50.844;4.418;2022-09-27T14:31:09;16.00;99.90
22337;DHT22;14992;50.844;4.418;2022-09-27T14:33:56;16.00;99.90
22337;DHT22;14992;50.844;4.418;2022-09-27T14:36:32;15.80;99.90
22337;DHT22;14992;50.844;4.418;2022-09-27T14:39:21;15.60;99.90
22337;DHT22;14992;50.844;4.418;2022-09-27T14:41:53;15.40;99.90
22337;DHT22;14992;50.844;4.418;2022-09-27T14:44:21;15.50;99.90
22337;DHT22;14992;50.844;4.418;2022-09-27T14:47:08;15.50;99.90
22337;DHT22;14992;50.844;4.418;2022-09-27T14:49:44;15.60;99.90
22337;DHT22;14992;50.844;4.418;2022-09-27T14:52:15;15.50;99.90
22337;DHT22;14992;50.844;4.418;2022-09-27T14:54:43;15.70;99.90
22337;DHT22;14992;50.844;4.418;2022-09-27T14:57:13;15.70;99.90
22337;DHT22;14992;50.844;4.418;2022-09-27T14:59:43;15.30;99.90
22337;DHT22;14992;50.844;4.418;2022-09-27T15:02:16;14.90;99.90
22337;DHT22;14992;50.844;4.418;2022-09-27T15:04:45;14.50;99.90
22337;DHT22;14992;50.844;4.418;2022-09-27T15:07:14;14.30;99.90
22337;DHT22;14992;50.844;4.418;2022-09-27T15:09:43;14.20;99.90
22337;DHT22;14992;50.844;4.418;2022-09-27T15:12:12;14.10;99.90
22337;DHT22;14992;50.844;4.418;2022-09-27T15:14:41;14.00;99.90
22337;DHT22;14992;50.844;4.418;2022-09-27T15:17:19;14.20;99.90
22337;DHT22;14992;50.844;4.418;2022-09-27T15:22:35;14.50;99.90
22337;DHT22;14992;50.844;4.418;2022-09-27T15:25:14;14.40;99.90
22337;DHT22;14992;50.844;4.418;2022-09-27T15:27:46;14.30;99.90
22337;DHT22;14992;50.844;4.418;2022-09-27T15:30:16;14.20;99.90
22337;DHT22;14992;50.844;4.418;2022-09-27T15:32:50;14.20;99.90
22337;DHT22;14992;50.844;4.418;2022-09-27T15:35:22;14.40;99.90
22337;DHT22;14992;50.844;4.418;2022-09-27T15:37:50;14.60;99.90
22337;DHT22;14992;50.844;4.418;2022-09-27T15:40:55;14.80;99.90
22337;DHT22;14992;50.844;4.418;2022-09-27T15:43:26;14.90;99.90
22337;DHT22;14992;50.844;4.418;2022-09-27T15:45:56;14.80;99.90
22337;DHT22;14992;50.844;4.418;2022-09-27T15:48:29;14.90;99.90
22337;DHT22;14992;50.844;4.418;2022-09-27T15:50:58;15.00;99.90
22337;DHT22;14992;50.844;4.418;2022-09-27T15:53:40;15.10;99.90
22337;DHT22;14992;50.844;4.418;2022-09-27T15:56:12;15.30;99.90
22337;DHT22;14992;50.844;4.418;2022-09-27T15:58:41;15.30;99.90
22337;DHT22;14992;50.844;4.418;2022-09-27T16:01:14;15.20;99.90
22337;DHT22;14992;50.844;4.418;2022-09-27T16:03:45;15.30;99.90
22337;DHT22;14992;50.844;4.418;2022-09-27T16:06:13;15.30;99.90
22337;DHT22;14992;50.844;4.418;2022-09-27T16:08:41;15.30;99.90
22337;DHT22;14992;50.844;4.418;2022-09-27T16:11:11;15.30;99.90
22337;DHT22;14992;50.844;4.418;2022-09-27T16:13:41;15.30;99.90
22337;DHT22;14992;50.844;4.418;2022-09-27T16:16:15;15.10;99.90
22337;DHT22;14992;50.844;4.418;2022-09-27T16:18:46;15.00;99.90
22337;DHT22;14992;50.844;4.418;2022-09-27T16:21:15;14.80;99.90
22337;DHT22;14992;50.844;4.418;2022-09-27T16:23:43;14.90;99.90
22337;DHT22;14992;50.844;4.418;2022-09-27T16:26:12;15.00;99.90
22337;DHT22;14992;50.844;4.418;2022-09-27T16:28:40;15.00;99.90
22337;DHT22;14992;50.844;4.418;2022-09-27T16:31:08;14.90;99.90
22337;DHT22;14992;50.844;4.418;2022-09-27T16:33:37;15.00;99.90
22337;DHT22;14992;50.844;4.418;2022-09-27T16:36:07;15.20;99.90
22337;DHT22;14992;50.844;4.418;2022-09-27T16:38:40;15.10;99.90
22337;DHT22;14992;50.844;4.418;2022-09-27T16:41:08;14.80;99.90
22337;DHT22;14992;50.844;4.418;2022-09-27T16:43:37;14.70;99.90
22337;DHT22;14992;50.844;4.418;2022-09-27T16:46:05;14.50;99.90